createdAt,value
2019-05-14T00:02:57.907Z,102719.33
2019-05-14T00:08:22.099Z,102723.37
2019-05-14T00:13:46.110Z,102717.23
2019-05-14T00:19:11.189Z,102717.28
2019-05-14T00:24:35.019Z,102708.30
2019-05-14T00:29:57.855Z,102706.16
2019-05-14T00:35:21.663Z,102700.20
2019-05-14T00:40:44.502Z,102698.42
2019-05-14T00:46:07.571Z,102704.00
2019-05-14T00:51:31.841Z,102696.46
2019-05-14T00:56:55.270Z,102697.31
2019-05-14T01:02:18.275Z,102692.44
2019-05-14T01:07:42.299Z,102695.17
2019-05-14T01:13:06.558Z,102687.01
2019-05-14T01:18:32.269Z,102692.62
2019-05-14T01:23:54.904Z,102681.94
2019-05-14T01:29:18.338Z,102687.85
2019-05-14T01:34:42.332Z,102682.53
2019-05-14T01:40:07.397Z,102681.67
2019-05-14T01:45:31.698Z,102683.51
2019-05-14T01:50:55.262Z,102685.38
2019-05-14T01:56:18.536Z,102681.15
2019-05-14T02:01:42.223Z,102684.25
2019-05-14T02:07:05.470Z,102683.73
2019-05-14T02:12:31.386Z,102690.21
2019-05-14T02:17:53.674Z,102684.55
2019-05-14T02:23:16.966Z,102681.22
2019-05-14T02:28:42.022Z,102679.53
2019-05-14T02:34:05.514Z,102684.99
2019-05-14T02:39:29.180Z,102685.27
2019-05-14T02:44:52.250Z,102684.48
2019-05-14T02:50:19.955Z,102675.72
2019-05-14T02:55:41.388Z,102675.20
2019-05-14T03:01:04.187Z,102669.73
2019-05-14T03:06:29.147Z,102669.51
2019-05-14T03:11:52.679Z,102677.13
2019-05-14T03:17:19.549Z,102681.91
2019-05-14T03:22:54.860Z,102681.37
2019-05-14T03:28:09.009Z,102686.74
2019-05-14T03:33:33.307Z,102692.75
2019-05-14T03:38:55.305Z,102687.13
2019-05-14T03:44:19.991Z,102689.64
2019-05-14T03:49:43.648Z,102685.18
2019-05-14T03:55:09.484Z,102687.91
2019-05-14T04:00:50.997Z,102684.94
2019-05-14T04:06:18.997Z,102688.80
2019-05-14T04:11:42.700Z,102680.51
2019-05-14T04:17:11.230Z,102685.39
2019-05-14T04:22:33.772Z,102675.53
2019-05-14T04:27:59.799Z,102679.01
2019-05-14T04:33:29.914Z,102682.52
2019-05-14T04:38:55.185Z,102689.30
2019-05-14T04:44:18.947Z,102702.02
2019-05-14T04:49:41.009Z,102695.98
2019-05-14T04:55:09.037Z,102701.37
2019-05-14T05:00:31.166Z,102704.27
2019-05-14T05:05:54.829Z,102694.14
2019-05-14T05:11:21.229Z,102700.45
2019-05-14T05:16:43.014Z,102703.05
2019-05-14T05:22:08.033Z,102695.73
2019-05-14T05:27:31.677Z,102694.61
2019-05-14T05:32:54.851Z,102691.67
2019-05-14T05:38:18.494Z,102692.10
2019-05-14T05:43:41.874Z,102689.73
2019-05-14T05:49:05.248Z,102691.30
2019-05-14T05:54:29.343Z,102696.34
2019-05-14T05:59:53.189Z,102695.04
2019-05-14T06:05:18.609Z,102692.88
2019-05-14T06:10:41.141Z,102692.58
2019-05-14T06:16:04.542Z,102693.36
2019-05-14T06:21:29.277Z,102682.19
2019-05-14T06:26:53.359Z,102691.36
2019-05-14T06:32:18.667Z,102688.80
2019-05-14T06:37:41.796Z,102687.16
2019-05-14T06:43:04.853Z,102684.52
2019-05-14T06:48:34.471Z,102692.44
2019-05-14T06:53:53.539Z,102687.30
2019-05-14T06:59:18.234Z,102689.74
2019-05-14T07:04:41.809Z,102688.95
2019-05-14T07:10:09.029Z,102687.45
2019-05-14T07:15:31.464Z,102682.73
2019-05-14T07:20:55.190Z,102693.67
2019-05-14T07:26:19.294Z,102687.53
2019-05-14T07:31:42.337Z,102691.78
2019-05-14T07:37:09.279Z,102688.21
2019-05-14T07:42:32.202Z,102681.52
2019-05-14T07:47:57.933Z,102690.30
2019-05-14T07:53:33.984Z,102685.14
2019-05-14T07:58:46.163Z,102680.02
2019-05-14T08:04:10.786Z,102680.95
2019-05-14T08:09:34.385Z,102675.69
2019-05-14T08:15:14.330Z,102668.39
2019-05-14T08:20:23.384Z,102663.24
2019-05-14T08:25:48.096Z,102661.06
2019-05-14T08:31:11.970Z,102650.00
2019-05-14T08:36:37.818Z,102646.38
2019-05-14T08:42:04.053Z,102645.55
2019-05-14T08:47:24.810Z,102639.70
2019-05-14T08:52:48.520Z,102627.70
2019-05-14T08:58:13.933Z,102619.08
2019-05-14T09:03:35.963Z,102615.15
2019-05-14T09:08:59.776Z,102620.48
2019-05-14T09:14:23.036Z,102606.56
2019-05-14T09:20:01.027Z,102604.82
2019-05-14T09:25:11.206Z,102598.80
2019-05-14T09:30:34.258Z,102602.94
2019-05-14T09:36:13.758Z,102601.88
2019-05-14T09:41:22.833Z,102591.80
2019-05-14T09:46:46.317Z,102588.94
2019-05-14T09:52:10.037Z,102576.80
2019-05-14T09:57:33.624Z,102569.11
2019-05-14T10:02:59.492Z,102563.48
2019-05-14T10:08:21.444Z,102556.91
2019-05-14T10:13:45.018Z,102561.14
2019-05-14T10:19:08.431Z,102570.06
2019-05-14T10:24:31.711Z,102566.14
2019-05-14T10:29:55.093Z,102560.95
2019-05-14T10:35:19.155Z,102550.86
2019-05-14T10:40:42.254Z,102563.89
2019-05-14T10:46:05.633Z,102555.56
2019-05-14T10:51:28.805Z,102546.88
2019-05-14T10:56:52.005Z,102544.91
2019-05-14T11:02:15.541Z,102550.09
2019-05-14T11:07:41.772Z,102545.66
2019-05-14T11:13:04.294Z,102528.89
2019-05-14T11:18:29.108Z,102533.33
2019-05-14T11:23:52.632Z,102538.30
2019-05-14T11:29:18.387Z,102531.52
2019-05-14T11:34:41.021Z,102513.53
2019-05-14T11:40:08.724Z,102516.42
2019-05-14T11:45:32.104Z,102509.88
2019-05-14T11:50:55.459Z,102499.53
2019-05-14T11:56:19.634Z,102521.33
2019-05-14T12:01:43.099Z,102513.47
2019-05-14T12:07:05.903Z,102510.14
2019-05-14T12:12:29.535Z,102510.30
2019-05-14T12:17:52.893Z,102506.48
2019-05-14T12:23:16.316Z,102500.50
2019-05-14T12:28:39.584Z,102502.80
2019-05-14T12:34:02.930Z,102506.34
2019-05-14T12:39:26.269Z,102502.34
2019-05-14T12:44:49.929Z,102498.93
2019-05-14T12:50:14.013Z,102483.87
2019-05-14T12:55:39.978Z,102478.80
2019-05-14T13:01:01.902Z,102457.57
2019-05-14T13:06:24.768Z,102453.67
2019-05-14T13:11:48.172Z,102437.42
2019-05-14T13:17:11.336Z,102441.70
2019-05-14T13:22:43.753Z,102440.95
2019-05-14T13:27:59.564Z,102449.45
2019-05-14T13:33:22.163Z,102438.21
2019-05-14T13:38:48.814Z,102416.22
2019-05-14T13:44:24.067Z,102424.45
2019-05-14T13:49:35.444Z,102417.64
2019-05-14T13:54:58.423Z,102419.59
2019-05-14T14:00:22.283Z,102414.20
2019-05-14T14:05:45.328Z,102405.94
2019-05-14T14:11:12.644Z,102415.12
2019-05-14T14:16:33.216Z,102392.64
2019-05-14T14:21:59.024Z,102397.05
2019-05-14T14:27:21.246Z,102400.23
2019-05-14T14:32:44.344Z,102394.25
2019-05-14T14:38:08.720Z,102374.30
2019-05-14T14:43:31.713Z,102354.73
2019-05-14T14:48:57.806Z,102377.23
2019-05-14T14:54:19.859Z,102368.73
2019-05-14T14:59:43.412Z,102375.63
2019-05-14T15:05:12.812Z,102370.17
2019-05-14T15:10:34.484Z,102363.00
2019-05-14T15:16:00.826Z,102362.30
2019-05-14T15:21:22.270Z,102358.92
2019-05-14T15:26:45.952Z,102356.70
2019-05-14T15:32:09.435Z,102363.31
2019-05-14T15:37:32.603Z,102365.78
2019-05-14T15:43:01.597Z,102372.29
2019-05-14T15:48:20.649Z,102350.47
2019-05-14T15:54:02.685Z,102361.55
2019-05-14T15:59:08.809Z,102341.14
2019-05-14T16:04:32.741Z,102334.30
2019-05-14T16:09:56.781Z,102339.83
2019-05-14T16:15:20.374Z,102333.81
2019-05-14T16:20:43.711Z,102326.80
2019-05-14T16:26:08.890Z,102327.06
2019-05-14T16:31:32.805Z,102328.52
2019-05-14T16:36:58.451Z,102336.56
2019-05-14T16:42:21.534Z,102325.83
2019-05-14T16:47:45.024Z,102316.30
2019-05-14T16:53:11.588Z,102328.08
2019-05-14T16:58:32.661Z,102313.18
2019-05-14T17:03:56.300Z,102314.17
2019-05-14T17:09:19.767Z,102322.70
2019-05-14T17:14:43.327Z,102314.89
2019-05-14T17:20:08.551Z,102322.02
2019-05-14T17:25:31.284Z,102317.09
2019-05-14T17:30:54.868Z,102316.54
2019-05-14T17:36:18.746Z,102320.05
2019-05-14T17:41:42.599Z,102321.70
2019-05-14T17:47:05.931Z,102317.66
2019-05-14T17:52:30.288Z,102320.63
2019-05-14T17:57:57.979Z,102317.38
2019-05-14T18:03:18.590Z,102312.59
2019-05-14T18:08:42.278Z,102309.73
2019-05-14T18:14:11.960Z,102316.30
2019-05-14T18:19:33.066Z,102322.66
2019-05-14T18:24:59.098Z,102324.73
2019-05-14T18:30:21.306Z,102317.88
2019-05-14T18:35:47.511Z,102314.45
2019-05-14T18:41:10.017Z,102318.06
2019-05-14T18:46:33.488Z,102314.11
2019-05-14T18:51:59.119Z,102315.30
2019-05-14T18:57:21.324Z,102314.57
2019-05-14T19:02:44.560Z,102315.09
2019-05-14T19:08:08.231Z,102318.50
2019-05-14T19:13:32.549Z,102318.16
2019-05-14T19:18:58.367Z,102320.17
2019-05-14T19:24:20.897Z,102322.19
2019-05-14T19:29:44.119Z,102327.12
2019-05-14T19:35:08.730Z,102315.31
2019-05-14T19:40:32.451Z,102312.39
2019-05-14T19:45:55.392Z,102309.78
2019-05-14T19:51:18.897Z,102305.41
2019-05-14T19:56:55.514Z,102307.30
2019-05-14T20:02:09.552Z,102304.09
2019-05-14T20:07:32.358Z,102294.71
2019-05-14T20:12:56.358Z,102304.37
2019-05-14T20:18:23.322Z,102304.53
2019-05-14T20:23:48.090Z,102295.31
2019-05-14T20:29:13.061Z,102303.54
2019-05-14T20:34:36.317Z,102297.92
2019-05-14T20:39:59.632Z,102302.66
2019-05-14T20:45:23.168Z,102287.70
2019-05-14T20:50:46.650Z,102285.84
2019-05-14T20:56:10.030Z,102290.09
2019-05-14T21:01:33.532Z,102291.02
2019-05-14T21:06:58.741Z,102284.19
2019-05-14T21:12:21.557Z,102282.34
2019-05-14T21:17:45.167Z,102282.79
2019-05-14T21:23:08.979Z,102276.94
2019-05-14T21:28:32.778Z,102275.55
2019-05-14T21:33:58.533Z,102271.69
2019-05-14T21:39:21.231Z,102279.61
2019-05-14T21:44:44.517Z,102269.66
2019-05-14T21:50:09.068Z,102270.25
2019-05-14T21:55:32.918Z,102261.21
2019-05-14T22:00:59.248Z,102257.42
2019-05-14T22:06:21.465Z,102255.20
2019-05-14T22:11:44.358Z,102253.90
2019-05-14T22:17:08.079Z,102242.01
2019-05-14T22:22:31.532Z,102234.52
2019-05-14T22:28:10.668Z,102232.97
2019-05-14T22:33:19.825Z,102223.05
2019-05-14T22:38:42.672Z,102227.50
2019-05-14T22:44:05.993Z,102221.92
2019-05-14T22:49:28.859Z,102226.94
2019-05-14T22:54:51.795Z,102217.11
2019-05-14T23:00:15.797Z,102217.25
2019-05-14T23:05:39.474Z,102211.65
2019-05-14T23:11:03.029Z,102203.77
2019-05-14T23:16:34.458Z,102205.45
2019-05-14T23:21:51.702Z,102206.81
2019-05-14T23:27:15.064Z,102192.67
2019-05-14T23:32:38.776Z,102183.67
2019-05-14T23:38:01.624Z,102182.94
2019-05-14T23:43:25.269Z,102185.98
2019-05-14T23:48:48.974Z,102181.42
2019-05-14T23:54:12.436Z,102187.64
2019-05-14T23:59:35.740Z,102185.20
